createdAt,value
2018-08-25T00:00:57.131Z,14.77
2018-08-25T00:01:57.123Z,14.78
2018-08-25T00:02:57.121Z,14.72
2018-08-25T00:03:57.121Z,14.77
2018-08-25T00:04:57.120Z,14.72
2018-08-25T00:05:57.121Z,14.70
2018-08-25T00:06:57.118Z,14.69
2018-08-25T00:07:57.118Z,14.69
2018-08-25T00:08:57.117Z,14.70
2018-08-25T00:09:57.118Z,14.72
2018-08-25T00:10:57.116Z,14.81
2018-08-25T00:11:57.114Z,14.73
2018-08-25T00:12:57.115Z,14.72
2018-08-25T00:13:57.114Z,14.77
2018-08-25T00:14:57.111Z,14.60
2018-08-25T00:15:57.110Z,14.78
2018-08-25T00:16:57.111Z,14.72
2018-08-25T00:17:57.110Z,14.65
2018-08-25T00:18:57.107Z,14.73
2018-08-25T00:19:57.112Z,14.60
2018-08-25T00:20:57.108Z,14.53
2018-08-25T00:21:57.107Z,14.55
2018-08-25T00:22:57.108Z,14.50
2018-08-25T00:23:57.103Z,14.68
2018-08-25T00:24:57.104Z,14.63
2018-08-25T00:25:57.102Z,14.72
2018-08-25T00:26:57.107Z,14.73
2018-08-25T00:27:57.100Z,14.78
2018-08-25T00:28:57.098Z,14.69
2018-08-25T00:29:57.099Z,14.73
2018-08-25T00:30:57.098Z,14.70
2018-08-25T00:31:57.096Z,14.65
2018-08-25T00:32:57.094Z,14.72
2018-08-25T00:33:57.095Z,14.63
2018-08-25T00:34:57.093Z,14.68
2018-08-25T00:35:57.092Z,14.69
2018-08-25T00:36:57.091Z,14.81
2018-08-25T00:37:57.092Z,14.68
2018-08-25T00:38:57.088Z,14.69
2018-08-25T00:39:57.088Z,14.77
2018-08-25T00:40:57.087Z,14.86
2018-08-25T00:41:57.087Z,14.77
2018-08-25T00:42:57.087Z,14.84
2018-08-25T00:43:57.084Z,14.82
2018-08-25T00:44:57.084Z,14.79
2018-08-25T00:45:57.082Z,14.70
2018-08-25T00:46:57.082Z,14.78
2018-08-25T00:47:57.086Z,14.62
2018-08-25T00:48:57.079Z,14.65
2018-08-25T00:49:57.078Z,14.63
2018-08-25T00:50:57.075Z,14.65
2018-08-25T00:51:57.074Z,14.63
2018-08-25T00:52:57.078Z,14.69
2018-08-25T00:53:57.071Z,14.65
2018-08-25T00:54:57.070Z,14.78
2018-08-25T00:55:57.071Z,14.66
2018-08-25T00:56:57.070Z,14.77
2018-08-25T00:57:57.069Z,14.73
2018-08-25T00:58:57.069Z,14.73
2018-08-25T00:59:57.065Z,14.78
2018-08-25T01:00:57.065Z,14.73
2018-08-25T01:01:57.065Z,14.73
2018-08-25T01:02:57.061Z,14.73
2018-08-25T01:03:57.061Z,14.72
2018-08-25T01:04:57.061Z,14.73
2018-08-25T01:05:57.059Z,14.72
2018-08-25T01:06:57.057Z,14.72
2018-08-25T01:07:57.057Z,14.72
2018-08-25T01:08:57.058Z,14.72
2018-08-25T01:09:57.055Z,14.79
2018-08-25T01:10:57.055Z,14.73
2018-08-25T01:11:57.052Z,14.72
2018-08-25T01:12:57.053Z,14.79
2018-08-25T01:13:57.050Z,14.72
2018-08-25T01:14:57.049Z,14.68
2018-08-25T01:15:57.048Z,14.69
2018-08-25T01:16:57.047Z,14.69
2018-08-25T01:17:57.045Z,14.70
2018-08-25T01:18:57.047Z,14.68
2018-08-25T01:19:57.043Z,14.51
2018-08-25T01:20:57.043Z,14.51
2018-08-25T01:21:57.040Z,14.68
2018-08-25T01:22:57.038Z,14.69
2018-08-25T01:23:57.043Z,14.69
2018-08-25T01:24:57.037Z,14.72
2018-08-25T01:25:57.035Z,14.73
2018-08-25T01:26:57.032Z,14.77
2018-08-25T01:27:57.032Z,14.79
2018-08-25T01:28:57.033Z,14.73
2018-08-25T01:29:57.031Z,14.82
2018-08-25T01:30:57.028Z,14.77
2018-08-25T01:31:57.027Z,14.85
2018-08-25T01:32:57.026Z,14.72
2018-08-25T01:33:57.026Z,14.77
2018-08-25T01:34:59.645Z,14.72
2018-08-25T01:35:57.022Z,14.73
2018-08-25T01:36:57.021Z,14.77
2018-08-25T01:37:57.026Z,14.77
2018-08-25T01:38:57.028Z,14.63
2018-08-25T01:39:57.017Z,14.69
2018-08-25T01:40:57.017Z,14.68
2018-08-25T01:41:57.015Z,14.63
2018-08-25T01:42:57.012Z,14.68
2018-08-25T01:43:57.015Z,14.65
2018-08-25T01:44:57.014Z,14.65
2018-08-25T01:45:57.011Z,14.62
2018-08-25T01:46:57.007Z,14.55
2018-08-25T01:47:57.006Z,14.58
2018-08-25T01:48:57.006Z,14.62
2018-08-25T01:49:57.004Z,14.62
2018-08-25T01:50:57.003Z,14.51
2018-08-25T01:51:57.003Z,14.60
2018-08-25T01:52:56.999Z,14.55
2018-08-25T01:53:56.999Z,14.66
2018-08-25T01:54:56.998Z,14.60
2018-08-25T01:55:56.996Z,14.66
2018-08-25T01:56:56.997Z,14.72
2018-08-25T01:57:56.994Z,14.62
2018-08-25T01:58:56.993Z,14.60
2018-08-25T01:59:56.991Z,14.60
2018-08-25T02:00:56.992Z,14.60
2018-08-25T02:01:56.990Z,14.65
2018-08-25T02:02:56.992Z,14.55
2018-08-25T02:03:56.989Z,14.58
2018-08-25T02:04:56.986Z,14.53
2018-08-25T02:05:56.984Z,14.51
2018-08-25T02:06:56.983Z,14.53
2018-08-25T02:07:56.981Z,14.53
2018-08-25T02:08:56.980Z,14.53
2018-08-25T02:09:56.981Z,14.55
2018-08-25T02:10:56.979Z,14.48
2018-08-25T02:11:56.976Z,14.50
2018-08-25T02:12:56.978Z,14.51
2018-08-25T02:13:56.976Z,14.48
2018-08-25T02:14:56.973Z,14.58
2018-08-25T02:15:56.973Z,14.53
2018-08-25T02:16:56.971Z,14.60
2018-08-25T02:17:56.970Z,14.53
2018-08-25T02:18:56.968Z,14.62
2018-08-25T02:19:56.968Z,14.62
2018-08-25T02:20:56.966Z,14.50
2018-08-25T02:21:56.966Z,14.62
2018-08-25T02:22:56.966Z,14.55
2018-08-25T02:23:56.962Z,14.63
2018-08-25T02:24:56.961Z,14.60
2018-08-25T02:25:56.960Z,14.50
2018-08-25T02:26:56.958Z,14.60
2018-08-25T02:27:56.958Z,14.58
2018-08-25T02:28:56.960Z,14.58
2018-08-25T02:29:56.956Z,14.51
2018-08-25T02:30:56.953Z,14.53
2018-08-25T02:31:56.952Z,14.53
2018-08-25T02:32:56.951Z,14.55
2018-08-25T02:33:56.952Z,14.51
2018-08-25T02:34:56.953Z,14.58
2018-08-25T02:35:56.948Z,14.68
2018-08-25T02:36:56.948Z,14.63
2018-08-25T02:37:56.946Z,14.72
2018-08-25T02:38:56.945Z,14.72
2018-08-25T02:39:56.945Z,14.72
2018-08-25T02:40:56.943Z,14.70
2018-08-25T02:41:56.947Z,14.66
2018-08-25T02:42:56.940Z,14.72
2018-08-25T02:43:56.940Z,14.82
2018-08-25T02:44:56.938Z,14.81
2018-08-25T02:45:56.938Z,14.84
2018-08-25T02:46:56.936Z,14.84
2018-08-25T02:47:56.935Z,14.85
2018-08-25T02:48:56.936Z,14.85
2018-08-25T02:49:56.933Z,14.82
2018-08-25T02:50:56.931Z,14.92
2018-08-25T02:51:56.931Z,14.92
2018-08-25T02:52:56.936Z,15.00
2018-08-25T02:53:56.929Z,15.00
2018-08-25T02:54:56.927Z,14.91
2018-08-25T02:55:56.925Z,14.82
2018-08-25T02:56:56.924Z,14.84
2018-08-25T02:57:56.925Z,14.69
2018-08-25T02:58:56.922Z,14.78
2018-08-25T02:59:56.923Z,14.68
2018-08-25T03:00:56.922Z,14.45
2018-08-25T03:01:56.919Z,14.28
2018-08-25T03:02:56.918Z,14.17
2018-08-25T03:03:56.916Z,14.05
2018-08-25T03:04:56.928Z,14.04
2018-08-25T03:05:56.915Z,13.89
2018-08-25T03:06:56.913Z,13.83
2018-08-25T03:07:56.914Z,13.90
2018-08-25T03:08:56.910Z,13.81
2018-08-25T03:09:56.908Z,13.78
2018-08-25T03:10:56.906Z,13.81
2018-08-25T03:11:56.908Z,13.77
2018-08-25T03:12:56.905Z,13.72
2018-08-25T03:13:56.903Z,13.70
2018-08-25T03:14:56.900Z,13.71
2018-08-25T03:15:56.900Z,13.65
2018-08-25T03:16:56.898Z,13.65
2018-08-25T03:17:56.897Z,13.60
2018-08-25T03:18:56.894Z,13.57
2018-08-25T03:19:56.893Z,13.50
2018-08-25T03:20:56.890Z,13.49
2018-08-25T03:21:56.890Z,13.50
2018-08-25T03:22:56.886Z,13.39
2018-08-25T03:23:56.885Z,13.38
2018-08-25T03:24:56.883Z,13.33
2018-08-25T03:25:56.882Z,13.27
2018-08-25T03:26:56.878Z,13.27
2018-08-25T03:27:56.877Z,13.27
2018-08-25T03:28:56.875Z,13.31
2018-08-25T03:29:56.874Z,13.19
2018-08-25T03:30:56.884Z,13.28
2018-08-25T03:31:56.869Z,13.27
2018-08-25T03:32:56.870Z,13.37
2018-08-25T03:33:56.865Z,13.20
2018-08-25T03:34:56.861Z,13.13
2018-08-25T03:35:56.859Z,13.31
2018-08-25T03:36:56.858Z,13.20
2018-08-25T03:37:56.860Z,13.20
2018-08-25T03:38:56.852Z,13.12
2018-08-25T03:39:56.853Z,13.11
2018-08-25T03:40:56.853Z,13.20
2018-08-25T03:41:56.851Z,13.15
2018-08-25T03:42:56.844Z,13.22
2018-08-25T03:43:56.841Z,13.11
2018-08-25T03:44:56.840Z,13.16
2018-08-25T03:45:56.837Z,13.20
2018-08-25T03:46:56.834Z,13.16
2018-08-25T03:47:56.833Z,13.16
2018-08-25T03:48:56.833Z,13.09
2018-08-25T03:49:56.829Z,13.12
2018-08-25T03:50:56.825Z,13.12
2018-08-25T03:51:56.824Z,13.18
2018-08-25T03:52:56.822Z,13.13
2018-08-25T03:53:56.819Z,13.18
2018-08-25T03:54:56.814Z,13.16
2018-08-25T03:55:56.816Z,13.16
2018-08-25T03:56:56.813Z,13.11
2018-08-25T03:57:56.810Z,13.15
2018-08-25T03:58:56.806Z,13.01
2018-08-25T03:59:56.805Z,13.11
2018-08-25T04:00:56.805Z,13.03
2018-08-25T04:01:56.801Z,13.16
2018-08-25T04:02:56.798Z,13.04
2018-08-25T04:03:56.795Z,13.01
2018-08-25T04:04:56.794Z,13.11
2018-08-25T04:05:56.790Z,13.01
2018-08-25T04:06:56.795Z,13.16
2018-08-25T04:07:56.785Z,13.11
2018-08-25T04:08:56.783Z,13.13
2018-08-25T04:09:56.781Z,13.11
2018-08-25T04:10:56.778Z,13.09
2018-08-25T04:11:56.776Z,13.04
2018-08-25T04:12:56.775Z,13.08
2018-08-25T04:13:56.771Z,13.08
2018-08-25T04:14:56.884Z,13.01
2018-08-25T04:15:56.767Z,13.00
2018-08-25T04:16:56.765Z,13.12
2018-08-25T04:17:56.764Z,13.12
2018-08-25T04:18:56.760Z,13.08
2018-08-25T04:19:56.759Z,12.98
2018-08-25T04:20:56.755Z,12.98
2018-08-25T04:21:56.754Z,13.04
2018-08-25T04:22:56.751Z,13.08
2018-08-25T04:23:56.751Z,13.03
2018-08-25T04:24:56.745Z,13.03
2018-08-25T04:25:56.744Z,13.04
2018-08-25T04:26:56.741Z,13.04
2018-08-25T04:27:56.738Z,12.98
2018-08-25T04:28:56.737Z,13.01
2018-08-25T04:29:56.735Z,13.01
2018-08-25T04:30:56.731Z,13.03
2018-08-25T04:31:56.728Z,12.98
2018-08-25T04:32:56.728Z,12.97
2018-08-25T04:33:56.728Z,13.08
2018-08-25T04:34:56.723Z,13.01
2018-08-25T04:35:56.721Z,13.04
2018-08-25T04:36:56.718Z,13.12
2018-08-25T04:37:56.718Z,13.16
2018-08-25T04:38:56.714Z,13.05
2018-08-25T04:39:56.711Z,13.11
2018-08-25T04:40:56.716Z,13.12
2018-08-25T04:41:56.708Z,13.00
2018-08-25T04:42:56.703Z,13.04
2018-08-25T04:43:56.701Z,13.04
2018-08-25T04:44:56.701Z,13.08
2018-08-25T04:45:56.697Z,13.08
2018-08-25T04:46:56.695Z,13.03
2018-08-25T04:47:56.692Z,13.04
2018-08-25T04:48:56.690Z,13.05
2018-08-25T04:49:56.688Z,13.09
2018-08-25T04:50:56.685Z,13.08
2018-08-25T04:51:56.683Z,13.12
2018-08-25T04:52:56.680Z,13.08
2018-08-25T04:53:56.679Z,13.03
2018-08-25T04:54:56.675Z,13.16
2018-08-25T04:55:56.672Z,13.13
2018-08-25T04:56:56.671Z,13.18
2018-08-25T04:57:56.668Z,13.18
2018-08-25T04:58:56.666Z,13.15
2018-08-25T04:59:56.664Z,13.13
2018-08-25T05:00:56.661Z,13.12
2018-08-25T05:01:56.704Z,13.19
2018-08-25T05:02:56.657Z,13.19
2018-08-25T05:03:56.654Z,13.12
2018-08-25T05:04:56.652Z,13.15
2018-08-25T05:05:56.651Z,13.18
2018-08-25T05:06:56.647Z,13.12
2018-08-25T05:07:56.644Z,13.11
2018-08-25T05:08:56.642Z,13.16
2018-08-25T05:09:56.641Z,13.13
2018-08-25T05:10:56.640Z,13.16
2018-08-25T05:11:56.636Z,13.23
2018-08-25T05:12:56.633Z,13.20
2018-08-25T05:13:56.632Z,13.20
2018-08-25T05:14:56.629Z,13.16
2018-08-25T05:15:56.626Z,13.16
2018-08-25T05:16:56.630Z,13.19
2018-08-25T05:17:56.622Z,13.16
2018-08-25T05:18:56.619Z,13.16
2018-08-25T05:19:56.617Z,13.16
2018-08-25T05:20:56.614Z,13.22
2018-08-25T05:21:56.702Z,13.13
2018-08-25T05:22:56.610Z,13.15
2018-08-25T05:23:56.606Z,13.20
2018-08-25T05:24:56.607Z,13.19
2018-08-25T05:25:56.602Z,13.20
2018-08-25T05:26:56.600Z,13.20
2018-08-25T05:27:56.597Z,13.09
2018-08-25T05:28:56.595Z,13.16
2018-08-25T05:29:56.595Z,13.16
2018-08-25T05:30:56.595Z,13.16
2018-08-25T05:31:56.590Z,13.23
2018-08-25T05:32:56.584Z,13.16
2018-08-25T05:33:56.583Z,13.16
2018-08-25T05:34:56.579Z,13.08
2018-08-25T05:35:56.577Z,13.18
2018-08-25T05:36:56.574Z,13.22
2018-08-25T05:37:56.573Z,13.19
2018-08-25T05:38:56.570Z,13.16
2018-08-25T05:39:56.567Z,13.22
2018-08-25T05:40:56.563Z,13.19
2018-08-25T05:41:56.562Z,13.19
2018-08-25T05:42:56.560Z,13.19
2018-08-25T05:43:56.558Z,13.15
2018-08-25T05:44:56.554Z,13.20
2018-08-25T05:45:56.558Z,13.19
2018-08-25T05:46:56.551Z,13.18
2018-08-25T05:47:56.547Z,13.13
2018-08-25T05:48:56.546Z,13.11
2018-08-25T05:49:56.543Z,13.13
2018-08-25T05:50:56.539Z,13.18
2018-08-25T05:51:56.536Z,13.12
2018-08-25T05:52:56.564Z,13.20
2018-08-25T05:53:56.533Z,13.13
2018-08-25T05:54:56.528Z,13.16
2018-08-25T05:55:56.526Z,13.15
2018-08-25T05:56:56.524Z,13.23
2018-08-25T05:57:56.522Z,13.13
2018-08-25T05:58:56.518Z,13.19
2018-08-25T05:59:56.519Z,13.19
2018-08-25T06:00:56.513Z,13.31
2018-08-25T06:01:56.511Z,13.19
2018-08-25T06:02:56.509Z,13.19
2018-08-25T06:03:56.506Z,13.19
2018-08-25T06:04:56.503Z,13.42
2018-08-25T06:05:56.502Z,13.50
2018-08-25T06:06:56.498Z,13.47
2018-08-25T06:07:56.496Z,13.54
2018-08-25T06:08:56.492Z,13.53
2018-08-25T06:09:56.492Z,13.50
2018-08-25T06:10:56.487Z,13.46
2018-08-25T06:11:56.489Z,13.42
2018-08-25T06:12:56.483Z,13.60
2018-08-25T06:13:56.482Z,13.67
2018-08-25T06:14:56.478Z,13.59
2018-08-25T06:15:56.477Z,13.59
2018-08-25T06:16:56.473Z,13.53
2018-08-25T06:17:56.471Z,13.54
2018-08-25T06:18:56.469Z,13.54
2018-08-25T06:19:56.466Z,13.68
2018-08-25T06:20:56.464Z,13.62
2018-08-25T06:21:56.462Z,13.74
2018-08-25T06:22:56.461Z,13.68
2018-08-25T06:23:56.458Z,13.68
2018-08-25T06:24:56.455Z,13.70
2018-08-25T06:25:56.454Z,13.67
2018-08-25T06:26:56.451Z,13.59
2018-08-25T06:27:56.451Z,13.54
2018-08-25T06:28:56.446Z,13.60
2018-08-25T06:29:56.500Z,13.60
2018-08-25T06:30:56.446Z,13.65
2018-08-25T06:31:56.439Z,13.67
2018-08-25T06:32:56.438Z,13.68
2018-08-25T06:33:56.436Z,13.62
2018-08-25T06:34:56.432Z,13.63
2018-08-25T06:35:56.437Z,13.39
2018-08-25T06:36:56.428Z,13.39
2018-08-25T06:37:56.444Z,13.38
2018-08-25T06:38:56.424Z,13.44
2018-08-25T06:39:56.422Z,13.42
2018-08-25T06:40:56.419Z,13.41
2018-08-25T06:41:56.426Z,13.41
2018-08-25T06:42:56.416Z,13.33
2018-08-25T06:43:56.413Z,13.28
2018-08-25T06:44:56.411Z,13.37
2018-08-25T06:45:56.410Z,13.54
2018-08-25T06:46:56.406Z,13.63
2018-08-25T06:47:56.405Z,13.62
2018-08-25T06:48:56.404Z,13.75
2018-08-25T06:49:56.401Z,13.74
2018-08-25T06:50:56.398Z,13.90
2018-08-25T06:51:56.396Z,13.93
2018-08-25T06:52:56.393Z,14.07
2018-08-25T06:53:56.392Z,14.18
2018-08-25T06:54:56.388Z,14.22
2018-08-25T06:55:56.386Z,14.26
2018-08-25T06:56:56.384Z,14.05
2018-08-25T06:57:56.384Z,14.15
2018-08-25T06:58:56.381Z,14.17
2018-08-25T06:59:56.380Z,14.18
2018-08-25T07:00:56.378Z,14.05
2018-08-25T07:01:56.377Z,13.95
2018-08-25T07:02:56.373Z,14.04
2018-08-25T07:03:56.372Z,13.95
2018-08-25T07:04:56.369Z,13.86
2018-08-25T07:05:56.429Z,13.99
2018-08-25T07:06:56.366Z,14.08
2018-08-25T07:07:56.364Z,14.28
2018-08-25T07:08:56.362Z,14.12
2018-08-25T07:09:56.362Z,14.10
2018-08-25T07:10:56.358Z,14.20
2018-08-25T07:11:56.355Z,14.29
2018-08-25T07:12:56.362Z,14.25
2018-08-25T07:13:56.354Z,14.28
2018-08-25T07:14:56.352Z,14.25
2018-08-25T07:15:56.349Z,14.45
2018-08-25T07:16:56.350Z,14.68
2018-08-25T07:17:56.348Z,14.70
2018-08-25T07:18:56.399Z,14.72
2018-08-25T07:19:56.343Z,14.66
2018-08-25T07:20:56.344Z,14.65
2018-08-25T07:21:56.341Z,14.73
2018-08-25T07:22:56.338Z,14.89
2018-08-25T07:23:56.337Z,14.81
2018-08-25T07:24:56.336Z,14.92
2018-08-25T07:25:56.376Z,14.92
2018-08-25T07:26:56.335Z,14.81
2018-08-25T07:27:56.333Z,14.78
2018-08-25T07:28:56.332Z,14.78
2018-08-25T07:29:56.330Z,14.51
2018-08-25T07:30:56.329Z,14.45
2018-08-25T07:31:56.383Z,14.28
2018-08-25T07:32:56.327Z,14.22
2018-08-25T07:33:56.329Z,14.26
2018-08-25T07:34:56.324Z,14.12
2018-08-25T07:35:56.323Z,14.11
2018-08-25T07:36:56.323Z,13.99
2018-08-25T07:37:56.321Z,13.89
2018-08-25T07:38:56.319Z,13.89
2018-08-25T07:39:56.319Z,13.60
2018-08-25T07:40:56.318Z,13.50
2018-08-25T07:41:56.319Z,13.38
2018-08-25T07:42:56.315Z,13.28
2018-08-25T07:43:56.313Z,13.08
2018-08-25T07:44:56.312Z,13.08
2018-08-25T07:45:56.309Z,13.01
2018-08-25T07:46:56.307Z,13.00
2018-08-25T07:47:56.306Z,12.85
2018-08-25T07:48:56.310Z,12.95
2018-08-25T07:49:56.303Z,12.93
2018-08-25T07:50:56.304Z,12.97
2018-08-25T07:51:56.324Z,12.97
2018-08-25T07:52:56.300Z,13.11
2018-08-25T07:53:56.295Z,13.15
2018-08-25T07:54:56.293Z,13.23
2018-08-25T07:55:56.291Z,13.30
2018-08-25T07:56:56.288Z,13.44
2018-08-25T07:57:56.288Z,13.60
2018-08-25T07:58:56.285Z,13.85
2018-08-25T07:59:56.281Z,13.96
2018-08-25T08:00:56.281Z,13.99
2018-08-25T08:01:56.279Z,14.11
2018-08-25T08:02:56.276Z,14.22
2018-08-25T08:03:56.281Z,14.37
2018-08-25T08:04:56.273Z,14.63
2018-08-25T08:05:56.271Z,14.82
2018-08-25T08:06:56.270Z,14.99
2018-08-25T08:07:56.268Z,14.88
2018-08-25T08:08:56.268Z,14.72
2018-08-25T08:09:56.268Z,14.94
2018-08-25T08:10:56.265Z,14.96
2018-08-25T08:11:56.396Z,15.02
2018-08-25T08:12:56.262Z,14.92
2018-08-25T08:13:56.261Z,15.17
2018-08-25T08:14:56.259Z,15.17
2018-08-25T08:15:56.258Z,15.31
2018-08-25T08:16:56.260Z,15.11
2018-08-25T08:17:56.258Z,15.15
2018-08-25T08:18:56.258Z,15.18
2018-08-25T08:19:56.257Z,14.99
2018-08-25T08:20:56.255Z,15.10
2018-08-25T08:21:58.877Z,15.03
2018-08-25T08:22:56.457Z,14.96
2018-08-25T08:23:56.254Z,14.82
2018-08-25T08:24:56.257Z,14.68
2018-08-25T08:25:56.252Z,14.63
2018-08-25T08:26:56.257Z,14.32
2018-08-25T08:27:56.251Z,14.53
2018-08-25T08:28:56.251Z,14.54
2018-08-25T08:29:56.250Z,14.51
2018-08-25T08:30:56.249Z,14.40
2018-08-25T08:31:56.250Z,14.70
2018-08-25T08:32:56.327Z,14.84
2018-08-25T08:33:56.246Z,14.65
2018-08-25T08:34:56.248Z,14.32
2018-08-25T08:35:56.242Z,14.47
2018-08-25T08:36:56.243Z,14.59
2018-08-25T08:37:56.242Z,14.48
2018-08-25T08:38:56.240Z,14.35
2018-08-25T08:39:56.239Z,14.35
2018-08-25T08:40:56.240Z,14.53
2018-08-25T08:41:56.239Z,14.51
2018-08-25T08:42:56.237Z,14.28
2018-08-25T08:43:56.235Z,14.36
2018-08-25T08:44:56.235Z,14.32
2018-08-25T08:45:56.234Z,13.99
2018-08-25T08:46:56.233Z,13.60
2018-08-25T08:47:56.232Z,13.63
2018-08-25T08:48:56.231Z,13.56
2018-08-25T08:49:56.242Z,13.56
2018-08-25T08:50:56.228Z,13.65
2018-08-25T08:51:56.229Z,13.30
2018-08-25T08:52:56.227Z,13.41
2018-08-25T08:53:56.224Z,13.60
2018-08-25T08:54:56.223Z,13.41
2018-08-25T08:55:56.222Z,13.23
2018-08-25T08:56:56.221Z,13.44
2018-08-25T08:57:56.220Z,13.27
2018-08-25T08:58:56.218Z,13.52
2018-08-25T08:59:56.217Z,13.63
2018-08-25T09:00:56.216Z,13.93
2018-08-25T09:01:56.217Z,13.86
2018-08-25T09:02:56.212Z,13.97
2018-08-25T09:03:56.211Z,14.25
2018-08-25T09:04:56.209Z,14.41
2018-08-25T09:05:56.207Z,14.59
2018-08-25T09:06:56.205Z,14.94
2018-08-25T09:07:56.209Z,16.41
2018-08-25T09:08:56.203Z,16.84
2018-08-25T09:09:56.202Z,16.75
2018-08-25T09:10:56.201Z,17.24
2018-08-25T09:11:56.221Z,17.86
2018-08-25T09:12:56.202Z,18.34
2018-08-25T09:13:56.200Z,19.21
2018-08-25T09:14:56.199Z,19.15
2018-08-25T09:15:56.202Z,19.26
2018-08-25T09:16:56.203Z,19.09
2018-08-25T09:17:56.205Z,19.12
2018-08-25T09:18:56.205Z,19.09
2018-08-25T09:19:56.208Z,18.56
2018-08-25T09:20:56.215Z,18.07
2018-08-25T09:21:56.214Z,17.44
2018-08-25T09:22:56.217Z,16.65
2018-08-25T09:23:56.220Z,16.26
2018-08-25T09:24:56.225Z,15.61
2018-08-25T09:25:56.228Z,15.59
2018-08-25T09:26:56.234Z,15.68
2018-08-25T09:27:56.236Z,15.80
2018-08-25T09:28:56.239Z,15.52
2018-08-25T09:29:56.244Z,15.77
2018-08-25T09:30:56.246Z,15.72
2018-08-25T09:31:56.252Z,16.32
2018-08-25T09:32:56.253Z,16.29
2018-08-25T09:33:56.255Z,16.75
2018-08-25T09:34:56.258Z,17.15
2018-08-25T09:35:56.291Z,17.33
2018-08-25T09:36:56.330Z,17.48
2018-08-25T09:37:56.268Z,17.76
2018-08-25T09:38:56.271Z,17.49
2018-08-25T09:39:56.275Z,16.69
2018-08-25T09:40:56.277Z,17.42
2018-08-25T09:41:56.281Z,18.16
2018-08-25T09:42:56.283Z,17.85
2018-08-25T09:43:56.287Z,18.58
2018-08-25T09:44:56.291Z,19.02
2018-08-25T09:45:56.298Z,18.93
2018-08-25T09:46:56.328Z,19.62
2018-08-25T09:47:56.303Z,19.56
2018-08-25T09:48:56.307Z,19.14
2018-08-25T09:49:56.312Z,19.02
2018-08-25T09:50:56.316Z,17.83
2018-08-25T09:51:56.323Z,16.96
2018-08-25T09:52:56.327Z,16.68
2018-08-25T09:53:56.332Z,16.76
2018-08-25T09:54:56.336Z,16.12
2018-08-25T09:55:56.341Z,16.15
2018-08-25T09:56:56.346Z,16.12
2018-08-25T09:57:56.351Z,16.00
2018-08-25T09:58:56.408Z,16.96
2018-08-25T09:59:56.364Z,17.51
2018-08-25T10:00:56.366Z,17.94
2018-08-25T10:01:56.371Z,18.37
2018-08-25T10:02:56.373Z,19.31
2018-08-25T10:03:56.378Z,19.30
2018-08-25T10:04:56.386Z,19.21
2018-08-25T10:05:56.388Z,19.73
2018-08-25T10:06:56.393Z,19.08
2018-08-25T10:07:56.398Z,18.84
2018-08-25T10:08:56.403Z,18.98
2018-08-25T10:09:56.409Z,18.22
2018-08-25T10:10:56.426Z,17.82
2018-08-25T10:11:56.421Z,17.78
2018-08-25T10:12:56.425Z,18.58
2018-08-25T10:13:56.431Z,17.68
2018-08-25T10:14:56.436Z,17.65
2018-08-25T10:15:56.442Z,18.84
2018-08-25T10:16:56.475Z,18.99
2018-08-25T10:17:56.453Z,19.63
2018-08-25T10:18:56.458Z,20.22
2018-08-25T10:19:56.464Z,20.48
2018-08-25T10:20:56.469Z,20.16
2018-08-25T10:21:56.476Z,20.03
2018-08-25T10:22:56.535Z,20.88
2018-08-25T10:23:56.487Z,19.79
2018-08-25T10:24:56.494Z,19.37
2018-08-25T10:25:56.500Z,19.08
2018-08-25T10:26:56.510Z,20.13
2018-08-25T10:27:56.512Z,19.69
2018-08-25T10:28:56.538Z,19.02
2018-08-25T10:29:56.528Z,20.06
2018-08-25T10:30:56.533Z,20.55
2018-08-25T10:31:56.542Z,18.73
2018-08-25T10:32:56.547Z,18.77
2018-08-25T10:33:56.556Z,19.15
2018-08-25T10:34:56.557Z,18.26
2018-08-25T10:35:56.565Z,17.94
2018-08-25T10:36:56.570Z,17.76
2018-08-25T10:37:56.578Z,18.37
2018-08-25T10:38:56.583Z,18.01
2018-08-25T10:39:56.590Z,18.26
2018-08-25T10:40:56.595Z,18.25
2018-08-25T10:41:56.678Z,18.26
2018-08-25T10:42:56.607Z,18.31
2018-08-25T10:43:56.613Z,18.22
2018-08-25T10:44:56.617Z,18.37
2018-08-25T10:45:56.623Z,17.94
2018-08-25T10:46:56.627Z,17.59
2018-08-25T10:47:56.689Z,17.68
2018-08-25T10:48:56.638Z,18.00
2018-08-25T10:49:56.643Z,18.20
2018-08-25T10:50:56.651Z,17.92
2018-08-25T10:51:56.651Z,18.19
2018-08-25T10:52:56.656Z,18.34
2018-08-25T10:53:56.679Z,18.49
2018-08-25T10:54:56.662Z,19.02
2018-08-25T10:55:56.668Z,19.29
2018-08-25T10:56:56.675Z,19.24
2018-08-25T10:57:56.675Z,19.39
2018-08-25T10:58:56.679Z,19.26
2018-08-25T10:59:56.684Z,18.56
2018-08-25T11:00:56.770Z,18.81
2018-08-25T11:01:56.694Z,18.56
2018-08-25T11:02:56.696Z,18.50
2018-08-25T11:03:56.700Z,18.77
2018-08-25T11:04:56.703Z,18.95
2018-08-25T11:05:56.707Z,18.78
2018-08-25T11:06:56.710Z,18.70
2018-08-25T11:07:56.715Z,18.66
2018-08-25T11:08:56.755Z,18.22
2018-08-25T11:09:56.728Z,18.23
2018-08-25T11:10:56.725Z,18.34
2018-08-25T11:11:56.729Z,18.35
2018-08-25T11:12:56.734Z,18.15
2018-08-25T11:13:56.738Z,18.33
2018-08-25T11:14:56.739Z,18.41
2018-08-25T11:15:56.744Z,18.49
2018-08-25T11:16:56.747Z,18.28
2018-08-25T11:17:56.751Z,18.18
2018-08-25T11:18:56.754Z,17.98
2018-08-25T11:19:56.756Z,18.11
2018-08-25T11:20:56.763Z,18.40
2018-08-25T11:21:56.763Z,18.22
2018-08-25T11:22:56.767Z,18.37
2018-08-25T11:23:56.768Z,18.62
2018-08-25T11:24:56.773Z,18.74
2018-08-25T11:25:56.774Z,18.55
2018-08-25T11:26:56.786Z,18.56
2018-08-25T11:27:56.779Z,18.81
2018-08-25T11:28:56.782Z,18.93
2018-08-25T11:29:56.786Z,18.95
2018-08-25T11:30:56.787Z,19.08
2018-08-25T11:31:56.792Z,19.30
2018-08-25T11:32:56.794Z,19.49
2018-08-25T11:33:56.797Z,19.24
2018-08-25T11:34:56.802Z,19.12
2018-08-25T11:35:56.801Z,19.11
2018-08-25T11:36:56.805Z,19.07
2018-08-25T11:37:56.833Z,18.74
2018-08-25T11:38:56.810Z,18.65
2018-08-25T11:39:56.813Z,18.53
2018-08-25T11:40:56.820Z,18.68
2018-08-25T11:41:56.818Z,18.80
2018-08-25T11:42:56.821Z,18.93
2018-08-25T11:43:56.877Z,18.88
2018-08-25T11:44:56.825Z,18.89
2018-08-25T11:45:56.830Z,18.93
2018-08-25T11:46:56.834Z,18.99
2018-08-25T11:47:56.835Z,18.71
2018-08-25T11:48:56.838Z,18.81
2018-08-25T11:49:56.840Z,18.74
2018-08-25T11:50:56.842Z,18.74
2018-08-25T11:51:56.845Z,18.59
2018-08-25T11:52:56.846Z,18.66
2018-08-25T11:53:56.878Z,18.49
2018-08-25T11:54:56.854Z,18.63
2018-08-25T11:55:56.860Z,18.70
2018-08-25T11:56:56.859Z,18.68
2018-08-25T11:57:56.862Z,19.14
2018-08-25T11:58:56.865Z,19.37
2018-08-25T11:59:56.870Z,19.59
2018-08-25T12:00:56.871Z,19.52
2018-08-25T12:01:56.872Z,19.64
2018-08-25T12:02:56.877Z,19.89
2018-08-25T12:03:56.878Z,19.71
2018-08-25T12:04:56.881Z,19.26
2018-08-25T12:05:56.884Z,19.00
2018-08-25T12:06:56.884Z,19.51
2018-08-25T12:07:56.889Z,19.48
2018-08-25T12:08:56.891Z,19.70
2018-08-25T12:09:56.895Z,19.91
2018-08-25T12:10:56.897Z,19.92
2018-08-25T12:11:56.902Z,19.84
2018-08-25T12:12:56.903Z,19.99
2018-08-25T12:13:56.906Z,19.89
2018-08-25T12:14:56.908Z,19.84
2018-08-25T12:15:56.909Z,19.77
2018-08-25T12:16:56.912Z,19.82
2018-08-25T12:17:56.917Z,19.55
2018-08-25T12:18:56.919Z,19.55
2018-08-25T12:19:56.920Z,19.54
2018-08-25T12:20:56.927Z,19.37
2018-08-25T12:21:56.927Z,19.39
2018-08-25T12:22:56.933Z,19.12
2018-08-25T12:23:56.992Z,19.16
2018-08-25T12:24:56.934Z,19.14
2018-08-25T12:25:56.939Z,19.24
2018-08-25T12:26:56.943Z,19.19
2018-08-25T12:27:56.942Z,18.90
2018-08-25T12:28:56.945Z,18.92
2018-08-25T12:29:56.950Z,19.15
2018-08-25T12:30:56.950Z,19.36
2018-08-25T12:31:56.954Z,19.48
2018-08-25T12:32:56.957Z,19.34
2018-08-25T12:33:56.959Z,19.26
2018-08-25T12:34:56.965Z,19.41
2018-08-25T12:35:56.965Z,19.34
2018-08-25T12:36:56.968Z,19.15
2018-08-25T12:37:56.971Z,19.19
2018-08-25T12:38:56.986Z,19.34
2018-08-25T12:39:56.977Z,19.40
2018-08-25T12:40:56.979Z,19.33
2018-08-25T12:41:56.982Z,19.30
2018-08-25T12:42:56.982Z,19.41
2018-08-25T12:43:56.987Z,19.44
2018-08-25T12:44:57.015Z,19.26
2018-08-25T12:45:56.995Z,19.26
2018-08-25T12:46:56.992Z,19.22
2018-08-25T12:47:56.996Z,19.29
2018-08-25T12:48:57.019Z,19.34
2018-08-25T12:49:57.002Z,19.47
2018-08-25T12:50:57.005Z,19.31
2018-08-25T12:51:57.007Z,19.18
2018-08-25T12:52:57.009Z,19.18